Time;durP1;ratioP1;P1;durP2;ratioP2;P2;SDS_P1;SDS_P2;PMS_P1;PMS_P2;Temp;Humidity;BMP_temperature;BMP_pressure;BME280_temperature;BME280_humidity;BME280_pressure;Samples;Min_cycle;Max_cycle;Signal;HPM_P1;HPM_P2
2022/06/10 00:01:55;;;;;;;3.47;3.08;;;12.70;99.90;;;;;;5056348;28;20285;-75
2022/06/10 00:04:22;;;;;;;3.80;3.13;;;12.80;99.90;;;;;;5051001;28;20206;-77
2022/06/10 00:06:49;;;;;;;5.22;3.60;;;12.80;99.90;;;;;;5056057;28;20213;-77
2022/06/10 00:09:17;;;;;;;4.43;3.22;;;12.80;99.90;;;;;;5058088;28;20202;-76
2022/06/10 00:11:44;;;;;;;3.88;2.80;;;12.80;99.90;;;;;;5054545;28;20226;-77
2022/06/10 00:14:11;;;;;;;5.82;2.67;;;12.80;99.90;;;;;;5054299;28;20674;-77
2022/06/10 00:16:38;;;;;;;6.18;3.20;;;12.80;99.90;;;;;;5054292;28;20203;-77
2022/06/10 00:19:05;;;;;;;4.75;3.38;;;12.80;99.90;;;;;;5053170;28;20217;-76
2022/06/10 00:21:32;;;;;;;3.33;3.03;;;12.80;99.90;;;;;;5053054;28;20313;-76
2022/06/10 00:23:59;;;;;;;6.10;3.40;;;12.70;99.90;;;;;;5053539;28;20213;-77
2022/06/10 00:26:27;;;;;;;3.40;3.10;;;12.80;99.90;;;;;;5052491;28;20209;-76
2022/06/10 00:28:54;;;;;;;3.40;2.92;;;12.80;99.90;;;;;;5032813;28;20689;-77
2022/06/10 00:31:21;;;;;;;4.15;2.85;;;12.80;99.90;;;;;;5033639;28;20290;-77
2022/06/10 00:33:48;;;;;;;5.05;3.30;;;12.80;99.90;;;;;;5085331;22;20216;-76
2022/06/10 00:36:15;;;;;;;5.55;2.97;;;12.80;99.90;;;;;;5036110;28;20191;-77
2022/06/10 00:38:43;;;;;;;3.92;3.63;;;12.80;99.60;;;;;;5043477;28;20246;-78
2022/06/10 00:41:10;;;;;;;6.45;3.10;;;12.80;99.90;;;;;;5036432;28;20223;-78
2022/06/10 00:43:38;;;;;;;5.07;3.30;;;12.80;99.70;;;;;;5035063;28;20239;-80
2022/06/10 00:46:27;;;;;;;3.15;2.85;;;12.70;99.50;;;;;;5017996;28;20207;-78
2022/06/10 00:49:00;;;;;;;4.55;3.20;;;12.70;99.40;;;;;;5031153;28;20214;-79
2022/06/10 00:51:35;;;;;;;4.75;3.28;;;12.70;99.50;;;;;;5038301;28;20210;-79
2022/06/10 00:54:08;;;;;;;4.70;3.55;;;12.60;99.40;;;;;;5036817;28;20309;-79
2022/06/10 00:56:37;;;;;;;5.43;3.67;;;12.60;99.10;;;;;;5037156;28;20298;-78
2022/06/10 00:59:12;;;;;;;3.58;3.10;;;12.60;99.00;;;;;;5037161;28;20213;-79
2022/06/10 01:01:40;;;;;;;5.10;3.40;;;12.50;99.20;;;;;;5037537;28;20477;-78
2022/06/10 01:04:07;;;;;;;7.35;3.20;;;12.50;99.20;;;;;;5037714;28;20758;-78
2022/06/10 01:06:34;;;;;;;7.43;3.65;;;12.50;99.40;;;;;;5037654;28;20337;-79
2022/06/10 01:09:03;;;;;;;3.58;2.80;;;12.60;99.50;;;;;;5037456;28;20654;-78
2022/06/10 01:11:54;;;;;;;4.75;2.97;;;12.50;99.10;;;;;;5037329;28;20231;-78
2022/06/10 01:14:37;;;;;;;3.47;3.17;;;12.50;99.30;;;;;;5038204;28;20221;-78
2022/06/10 01:17:16;;;;;;;4.45;3.17;;;12.40;99.20;;;;;;5052535;28;20211;-80
2022/06/10 01:20:18;;;;;;;5.07;3.60;;;12.40;99.40;;;;;;5051347;28;20269;-79
2022/06/10 01:23:11;;;;;;;4.82;3.55;;;12.40;99.40;;;;;;5002643;28;20325;-78
2022/06/10 01:26:03;;;;;;;3.95;3.15;;;12.40;99.40;;;;;;5039227;28;20217;-79
2022/06/10 01:28:50;;;;;;;6.50;3.63;;;12.40;99.20;;;;;;5040022;28;20195;-79
2022/06/10 01:31:23;;;;;;;3.53;3.22;;;12.40;98.60;;;;;;5041004;28;20203;-78
2022/06/10 01:34:06;;;;;;;3.58;3.25;;;12.40;98.80;;;;;;5037791;28;20233;-77
2022/06/10 01:36:44;;;;;;;3.35;3.05;;;12.40;98.60;;;;;;5033185;28;20276;-77
2022/06/10 01:39:24;;;;;;;10.57;3.70;;;12.40;97.80;;;;;;5036112;28;20216;-78
2022/06/10 01:41:57;;;;;;;8.18;3.05;;;12.50;96.80;;;;;;5035276;28;20223;-78
2022/06/10 01:44:32;;;;;;;5.40;2.97;;;12.50;96.30;;;;;;5035723;28;20235;-78
2022/06/10 01:47:07;;;;;;;4.18;2.95;;;12.50;96.10;;;;;;5034604;28;20310;-78
2022/06/10 01:49:39;;;;;;;6.03;3.45;;;12.50;95.90;;;;;;5035293;28;20210;-78
2022/06/10 01:52:12;;;;;;;4.72;3.20;;;12.50;95.90;;;;;;5034012;28;20223;-78
2022/06/10 01:54:44;;;;;;;10.18;3.33;;;12.50;95.90;;;;;;5035172;28;20341;-78
2022/06/10 01:57:24;;;;;;;3.13;2.83;;;12.60;95.30;;;;;;5033661;28;20215;-78
2022/06/10 01:59:55;;;;;;;7.22;2.97;;;12.60;95.00;;;;;;5036125;28;20225;-79
2022/06/10 02:02:28;;;;;;;14.85;3.53;;;12.60;94.20;;;;;;5034999;28;20333;-79
2022/06/10 02:05:00;;;;;;;10.57;3.75;;;12.60;94.10;;;;;;5035081;28;20207;-78
2022/06/10 02:07:31;;;;;;;5.25;3.05;;;12.60;94.10;;;;;;5035307;28;20626;-79
2022/06/10 02:10:02;;;;;;;3.55;3.10;;;12.60;94.20;;;;;;5034593;28;20542;-79
2022/06/10 02:12:34;;;;;;;5.15;3.17;;;12.60;94.60;;;;;;5035843;28;20302;-78
2022/06/10 02:15:05;;;;;;;7.25;3.10;;;12.60;94.30;;;;;;5034989;28;20551;-77
2022/06/10 02:17:40;;;;;;;7.55;3.65;;;12.60;94.40;;;;;;5033760;28;20203;-78
2022/06/10 02:20:12;;;;;;;8.80;3.55;;;12.50;94.50;;;;;;5034613;28;20202;-77
2022/06/10 02:22:42;;;;;;;3.92;3.40;;;12.60;94.20;;;;;;5034937;28;20702;-78
2022/06/10 02:25:13;;;;;;;5.82;2.92;;;12.60;94.10;;;;;;5035570;28;20214;-78
2022/06/10 02:27:44;;;;;;;4.70;3.67;;;12.50;94.20;;;;;;5040636;28;20215;-78
2022/06/10 02:30:16;;;;;;;5.40;2.88;;;12.50;94.20;;;;;;5041217;28;20223;-79
2022/06/10 02:32:44;;;;;;;4.35;3.15;;;12.50;94.10;;;;;;5041298;28;20237;-79
2022/06/10 02:35:13;;;;;;;6.30;3.00;;;12.50;93.90;;;;;;5039847;28;20199;-78
2022/06/10 02:37:46;;;;;;;4.10;3.03;;;12.50;94.10;;;;;;5031361;28;20206;-78
2022/06/10 02:40:23;;;;;;;4.43;2.80;;;12.50;94.10;;;;;;5045852;28;20218;-78
2022/06/10 02:42:58;;;;;;;3.97;3.05;;;12.50;94.10;;;;;;5050628;28;20311;-79
2022/06/10 02:45:32;;;;;;;4.30;2.92;;;12.50;94.10;;;;;;5047004;28;20270;-78
2022/06/10 02:48:06;;;;;;;4.28;2.90;;;12.40;93.60;;;;;;5050649;28;20302;-78
2022/06/10 02:50:33;;;;;;;7.20;3.90;;;12.40;93.20;;;;;;5052533;28;20220;-79
2022/06/10 02:53:02;;;;;;;4.13;3.15;;;12.30;93.30;;;;;;5054040;28;20251;-78
2022/06/10 02:55:30;;;;;;;5.20;3.75;;;12.20;93.70;;;;;;5055604;28;20213;-78
2022/06/10 03:01:16;;;;;;;8.90;3.17;;;12.10;94.60;;;;;;5053577;28;20195;-79
2022/06/10 03:04:18;;;;;;;4.40;3.38;;;12.00;95.30;;;;;;5050129;28;20297;-78
2022/06/10 03:07:01;;;;;;;4.00;3.40;;;11.90;95.70;;;;;;5052398;28;20213;-79
2022/06/10 03:09:37;;;;;;;7.28;3.97;;;11.90;95.80;;;;;;5050880;28;20203;-78
2022/06/10 03:12:20;;;;;;;3.53;3.00;;;11.90;96.10;;;;;;5028991;28;20281;-79
2022/06/10 03:15:02;;;;;;;6.10;3.20;;;11.80;96.40;;;;;;5034489;28;20285;-78
2022/06/10 03:17:37;;;;;;;5.70;3.20;;;11.80;97.00;;;;;;5034343;28;20191;-78
2022/06/10 03:20:12;;;;;;;5.97;4.00;;;11.80;97.30;;;;;;5028836;28;20282;-78
2022/06/10 03:22:52;;;;;;;4.55;3.40;;;11.70;97.70;;;;;;5033298;28;20308;-77
2022/06/10 03:25:23;;;;;;;5.75;3.65;;;11.70;97.90;;;;;;5030562;28;20208;-78
2022/06/10 03:27:58;;;;;;;5.00;3.90;;;11.80;98.50;;;;;;5034376;28;20199;-78
2022/06/10 03:30:30;;;;;;;3.63;3.33;;;11.80;99.10;;;;;;5038697;28;20356;-79
2022/06/10 03:33:05;;;;;;;7.60;3.85;;;11.80;99.00;;;;;;5025296;28;20751;-78
2022/06/10 03:35:37;;;;;;;3.80;3.50;;;11.80;99.00;;;;;;5042952;28;20290;-79
2022/06/10 03:38:06;;;;;;;11.43;4.00;;;11.80;98.40;;;;;;5042780;28;20515;-78
2022/06/10 03:40:34;;;;;;;4.10;3.70;;;11.80;98.30;;;;;;5039753;28;20200;-80
2022/06/10 03:43:04;;;;;;;4.05;3.60;;;11.90;98.30;;;;;;5035400;28;20227;-77
2022/06/10 03:45:36;;;;;;;4.93;3.15;;;11.80;97.90;;;;;;5036632;28;20215;-79
2022/06/10 03:48:04;;;;;;;8.25;3.78;;;11.80;98.00;;;;;;5038110;28;20207;-79
2022/06/10 03:50:36;;;;;;;6.35;3.28;;;11.80;98.00;;;;;;5036304;28;20273;-79
2022/06/10 03:53:05;;;;;;;5.18;3.40;;;11.80;98.20;;;;;;5033408;28;20360;-77
2022/06/10 03:55:32;;;;;;;4.32;3.30;;;11.80;98.50;;;;;;5034508;28;20210;-78
2022/06/10 03:57:58;;;;;;;7.32;3.50;;;11.80;98.70;;;;;;5035023;28;20243;-79
2022/06/10 04:00:27;;;;;;;4.35;3.38;;;11.90;99.10;;;;;;5034567;28;20199;-78
2022/06/10 04:02:55;;;;;;;4.38;3.55;;;11.90;98.80;;;;;;5017363;28;20363;-79
2022/06/10 04:05:22;;;;;;;4.35;3.30;;;12.00;98.60;;;;;;5016477;28;20571;-77
2022/06/10 04:07:48;;;;;;;7.00;3.90;;;12.00;98.30;;;;;;5036216;28;20297;-77
2022/06/10 04:10:22;;;;;;;4.22;3.38;;;12.10;98.20;;;;;;5038962;28;20370;-78
2022/06/10 04:12:49;;;;;;;3.40;3.10;;;12.20;97.60;;;;;;5038301;28;20227;-77
2022/06/10 04:15:16;;;;;;;5.40;3.60;;;12.30;97.60;;;;;;5039450;28;20214;-78
2022/06/10 04:17:44;;;;;;;4.25;3.80;;;12.40;97.00;;;;;;5040016;28;20234;-79
2022/06/10 04:20:15;;;;;;;5.63;3.40;;;12.50;96.60;;;;;;5036352;28;20996;-79
2022/06/10 04:22:42;;;;;;;4.50;3.53;;;12.50;95.80;;;;;;5037598;28;20234;-77
2022/06/10 04:25:10;;;;;;;5.70;3.45;;;12.60;95.90;;;;;;5036522;28;20282;-78
2022/06/10 04:27:38;;;;;;;4.85;3.10;;;12.70;95.30;;;;;;5043220;28;20223;-78
2022/06/10 04:30:08;;;;;;;4.45;3.30;;;12.70;95.20;;;;;;5038785;28;20298;-78
2022/06/10 04:32:34;;;;;;;3.33;3.03;;;12.90;93.70;;;;;;5034055;28;20604;-79
2022/06/10 04:35:01;;;;;;;5.32;2.92;;;13.00;92.60;;;;;;5040649;28;20274;-79
2022/06/10 04:37:28;;;;;;;7.22;3.40;;;13.10;91.80;;;;;;5035161;28;20583;-77
2022/06/10 04:39:55;;;;;;;4.13;3.20;;;13.20;90.70;;;;;;5033096;28;20231;-78
2022/06/10 04:42:22;;;;;;;4.05;2.92;;;13.30;88.70;;;;;;5033970;28;20734;-79
2022/06/10 04:44:50;;;;;;;4.45;3.00;;;13.50;84.50;;;;;;5042124;28;20230;-77
2022/06/10 04:47:17;;;;;;;8.40;3.20;;;13.50;83.70;;;;;;5037640;28;20242;-78
2022/06/10 04:49:44;;;;;;;5.63;3.67;;;13.80;83.10;;;;;;5045097;28;20238;-79
2022/06/10 04:52:10;;;;;;;5.60;2.63;;;14.10;81.30;;;;;;5044133;28;20247;-79
2022/06/10 04:54:37;;;;;;;3.40;3.10;;;14.60;78.30;;;;;;5043993;28;20909;-78
2022/06/10 04:57:05;;;;;;;2.93;2.60;;;15.10;74.40;;;;;;5041630;28;20541;-79
2022/06/10 04:59:31;;;;;;;4.70;2.53;;;15.80;66.10;;;;;;5048109;28;20530;-79
2022/06/10 05:02:00;;;;;;;2.47;2.27;;;16.80;60.90;;;;;;5051113;28;20495;-79
2022/06/10 05:04:27;;;;;;;3.80;2.27;;;17.90;56.70;;;;;;5052937;28;20541;-79
2022/06/10 05:06:53;;;;;;;2.80;2.10;;;18.90;51.40;;;;;;5046316;28;20450;-78
2022/06/10 05:09:20;;;;;;;4.60;2.40;;;19.30;48.20;;;;;;5051153;28;20587;-79
2022/06/10 05:11:47;;;;;;;3.57;1.80;;;19.50;48.40;;;;;;5049833;28;20461;-78
2022/06/10 05:14:14;;;;;;;2.97;2.37;;;20.00;45.50;;;;;;5050297;28;20432;-79
2022/06/10 05:16:41;;;;;;;3.70;2.60;;;20.10;45.10;;;;;;5047511;28;20487;-78
2022/06/10 05:19:09;;;;;;;4.70;2.37;;;20.80;44.80;;;;;;5048449;28;20511;-79
2022/06/10 05:21:36;;;;;;;7.97;2.53;;;21.80;42.10;;;;;;5045373;28;20581;-78
2022/06/10 05:24:03;;;;;;;5.67;1.80;;;22.60;40.30;;;;;;5048080;28;20528;-78
2022/06/10 05:26:32;;;;;;;5.57;2.20;;;23.00;37.90;;;;;;5047819;28;21020;-78
2022/06/10 05:28:59;;;;;;;5.07;2.00;;;23.50;36.90;;;;;;5041383;28;20510;-79
2022/06/10 05:31:26;;;;;;;3.33;1.80;;;23.50;35.60;;;;;;5039782;28;20443;-79
2022/06/10 05:36:39;;;;;;;5.30;1.80;;;23.50;35.20;;;;;;5040362;28;20512;-79
2022/06/10 05:39:06;;;;;;;3.27;1.93;;;23.90;33.70;;;;;;5052187;28;20477;-79
2022/06/10 05:44:18;;;;;;;4.27;1.77;;;23.30;33.90;;;;;;5037827;28;20499;-79
2022/06/10 05:46:45;;;;;;;2.87;1.77;;;23.30;34.70;;;;;;5040010;28;20442;-79
2022/06/10 05:49:11;;;;;;;1.83;1.60;;;23.30;34.10;;;;;;5036096;28;20499;-79
2022/06/10 05:51:40;;;;;;;3.30;1.93;;;23.30;34.00;;;;;;5030151;28;20440;-79
2022/06/10 05:54:07;;;;;;;2.90;2.00;;;23.30;34.20;;;;;;5031326;28;20470;-79
2022/06/10 05:56:33;;;;;;;2.50;1.57;;;23.60;33.60;;;;;;5041395;28;20499;-79
2022/06/10 05:59:00;;;;;;;3.47;1.63;;;23.90;33.50;;;;;;5048910;28;20473;-79
2022/06/10 06:01:27;;;;;;;4.20;2.30;;;24.00;32.20;;;;;;5048242;28;20443;-79
2022/06/10 06:03:54;;;;;;;2.30;1.70;;;24.00;32.20;;;;;;5042170;28;20908;-80
2022/06/10 06:06:21;;;;;;;4.20;2.03;;;24.30;32.60;;;;;;5040004;28;20837;-79
2022/06/10 06:08:49;;;;;;;4.40;1.90;;;24.10;32.30;;;;;;5049237;28;20504;-79
2022/06/10 06:11:16;;;;;;;3.83;1.70;;;23.70;31.90;;;;;;5037970;28;20429;-79
2022/06/10 06:13:43;;;;;;;5.33;1.93;;;23.10;33.10;;;;;;5049783;28;20452;-78
2022/06/10 06:16:16;;;;;;;6.20;2.40;;;23.10;33.50;;;;;;5053633;28;20455;-79
2022/06/10 06:18:42;;;;;;;2.80;1.67;;;23.10;34.00;;;;;;5055582;28;20523;-78
2022/06/10 06:21:09;;;;;;;3.37;1.80;;;23.10;33.70;;;;;;5054261;28;20436;-78
2022/06/10 06:23:36;;;;;;;4.20;2.20;;;22.90;35.10;;;;;;5056233;28;20472;-80
2022/06/10 06:26:05;;;;;;;5.63;2.10;;;22.80;34.30;;;;;;5054594;28;20458;-80
2022/06/10 06:28:32;;;;;;;3.47;1.93;;;22.90;34.80;;;;;;5057427;28;20461;-79
2022/06/10 06:30:59;;;;;;;5.13;2.07;;;23.10;34.10;;;;;;5048474;28;20458;-79
2022/06/10 06:33:26;;;;;;;5.83;2.60;;;23.50;33.90;;;;;;5072844;22;20571;-74
2022/06/10 06:35:54;;;;;;;5.30;1.80;;;23.80;32.70;;;;;;5042731;28;20457;-77
2022/06/10 06:38:23;;;;;;;8.90;3.53;;;23.80;32.30;;;;;;5053533;28;20490;-74
2022/06/10 06:40:50;;;;;;;8.00;2.03;;;23.80;32.00;;;;;;5043315;28;21005;-73
2022/06/10 06:43:18;;;;;;;4.47;2.53;;;23.70;31.90;;;;;;5041848;28;20567;-73
2022/06/10 06:45:46;;;;;;;8.73;2.30;;;23.20;32.90;;;;;;5041865;28;20444;-74
2022/06/10 06:48:13;;;;;;;4.33;2.20;;;23.00;33.90;;;;;;5042574;28;20448;-75
2022/06/10 06:50:44;;;;;;;3.70;1.70;;;22.60;34.80;;;;;;5036448;28;20933;-74
2022/06/10 06:53:11;;;;;;;6.03;2.23;;;22.50;34.90;;;;;;5035289;28;20867;-74
2022/06/10 06:55:40;;;;;;;4.03;1.67;;;22.70;34.10;;;;;;5034325;28;20453;-74
2022/06/10 06:58:11;;;;;;;4.13;2.13;;;22.80;34.30;;;;;;5034491;28;20485;-74
2022/06/10 07:00:39;;;;;;;2.57;2.13;;;22.80;35.00;;;;;;5042382;28;20433;-74
2022/06/10 07:03:06;;;;;;;4.43;2.50;;;22.00;35.50;;;;;;5036161;28;20536;-73
2022/06/10 07:05:35;;;;;;;8.20;2.80;;;21.20;37.30;;;;;;5034393;28;20428;-72
2022/06/10 07:08:02;;;;;;;4.60;2.23;;;20.60;39.40;;;;;;5034325;28;20439;-73
2022/06/10 07:10:30;;;;;;;8.43;2.27;;;20.10;39.70;;;;;;5034089;28;20557;-74
2022/06/10 07:12:57;;;;;;;7.30;2.60;;;19.80;40.40;;;;;;5033310;28;20535;-72
2022/06/10 07:15:24;;;;;;;12.00;4.03;;;19.60;42.10;;;;;;5033789;28;20523;-72
2022/06/10 07:17:52;;;;;;;7.00;2.63;;;19.50;42.30;;;;;;5037076;28;20515;-73
2022/06/10 07:20:22;;;;;;;11.83;4.13;;;19.20;42.60;;;;;;5034823;28;20458;-74
2022/06/10 07:22:49;;;;;;;5.07;2.77;;;19.10;44.40;;;;;;5036679;28;20486;-75
2022/06/10 07:25:17;;;;;;;3.03;2.60;;;19.20;44.80;;;;;;5036586;28;20517;-74
2022/06/10 07:27:45;;;;;;;4.50;2.30;;;19.10;43.20;;;;;;5037007;28;20561;-74
2022/06/10 07:30:14;;;;;;;5.77;2.80;;;19.10;43.50;;;;;;5036646;28;20800;-73
2022/06/10 07:32:42;;;;;;;4.93;3.07;;;19.30;43.90;;;;;;5034935;28;20486;-74
2022/06/10 07:35:10;;;;;;;4.50;2.10;;;19.20;43.80;;;;;;5035490;28;20417;-74
2022/06/10 07:37:37;;;;;;;6.83;2.77;;;19.10;43.20;;;;;;5036651;28;20515;-74
2022/06/10 07:40:06;;;;;;;3.37;2.03;;;19.00;43.40;;;;;;5036404;28;20985;-73
2022/06/10 07:42:35;;;;;;;8.60;3.00;;;19.00;43.50;;;;;;5035466;28;20464;-73
2022/06/10 07:45:03;;;;;;;5.93;2.77;;;19.00;44.20;;;;;;5034630;28;20928;-73
2022/06/10 07:47:30;;;;;;;5.20;2.10;;;19.10;44.00;;;;;;5038381;28;20531;-76
2022/06/10 07:49:57;;;;;;;5.90;2.63;;;19.10;43.80;;;;;;5037523;28;20453;-74
2022/06/10 07:52:25;;;;;;;4.13;2.23;;;19.10;44.60;;;;;;5035370;28;20814;-74
2022/06/10 07:54:52;;;;;;;5.37;2.30;;;19.10;44.20;;;;;;5032792;28;20457;-74
2022/06/10 07:57:19;;;;;;;7.60;2.40;;;19.20;44.00;;;;;;5034310;28;20548;-74
2022/06/10 07:59:46;;;;;;;6.87;2.43;;;19.40;43.40;;;;;;5034344;28;20461;-74
2022/06/10 08:02:13;;;;;;;2.70;2.23;;;19.50;43.40;;;;;;5034518;28;20437;-72
2022/06/10 08:04:40;;;;;;;3.70;2.00;;;19.70;42.40;;;;;;5043969;28;20488;-77
2022/06/10 08:07:07;;;;;;;4.27;2.57;;;19.70;42.50;;;;;;5054483;28;20511;-72
2022/06/10 08:09:35;;;;;;;10.37;2.67;;;19.70;40.70;;;;;;5053607;28;20459;-75
2022/06/10 08:12:01;;;;;;;3.53;2.33;;;19.70;41.10;;;;;;5054903;28;20446;-76
2022/06/10 08:14:28;;;;;;;4.70;2.30;;;19.70;40.60;;;;;;5048897;28;20456;-74
2022/06/10 08:16:56;;;;;;;5.20;2.00;;;19.80;41.50;;;;;;5039537;28;20428;-73
2022/06/10 08:19:23;;;;;;;13.83;2.80;;;19.90;41.20;;;;;;5036446;28;20877;-73
2022/06/10 08:24:35;;;;;;;8.50;2.50;;;20.10;40.30;;;;;;5035634;28;20418;-74
2022/06/10 08:27:02;;;;;;;2.70;2.17;;;20.00;40.70;;;;;;5035596;28;20428;-73
2022/06/10 08:29:29;;;;;;;4.57;2.50;;;20.10;39.70;;;;;;5036294;28;20456;-73
2022/06/10 08:31:56;;;;;;;6.73;2.67;;;20.20;39.10;;;;;;5036551;28;20550;-73
2022/06/10 08:34:23;;;;;;;4.07;2.20;;;20.20;40.40;;;;;;5036266;28;20457;-73
2022/06/10 08:36:49;;;;;;;6.77;2.60;;;20.40;40.30;;;;;;5035986;28;20454;-73
2022/06/10 08:39:16;;;;;;;4.57;2.50;;;20.50;39.30;;;;;;5036770;28;20532;-75
2022/06/10 08:42:01;;;;;;;2.70;2.10;;;20.60;39.40;;;;;;5035840;28;20424;-73
2022/06/10 08:44:35;;;;;;;4.77;2.40;;;20.70;38.60;;;;;;5036659;28;21004;-75
2022/06/10 08:47:19;;;;;;;4.70;2.20;;;20.80;38.20;;;;;;5038676;28;20442;-76
2022/06/10 08:50:14;;;;;;;3.43;1.90;;;20.80;38.70;;;;;;5038519;28;20848;-75
2022/06/10 08:52:50;;;;;;;2.33;1.80;;;20.80;37.90;;;;;;5038880;28;20501;-75
2022/06/10 08:55:30;;;;;;;2.40;2.07;;;21.00;37.00;;;;;;5039264;28;20508;-75
2022/06/10 08:58:03;;;;;;;1.77;1.57;;;20.90;34.80;;;;;;5038972;28;20785;-73
2022/06/10 09:00:32;;;;;;;4.33;2.20;;;20.90;33.90;;;;;;5044824;28;20472;-76
2022/06/10 09:03:04;;;;;;;3.40;1.60;;;20.90;35.70;;;;;;5050648;28;20455;-75
2022/06/10 09:05:35;;;;;;;3.33;1.80;;;21.00;35.90;;;;;;5050110;28;20893;-75
2022/06/10 09:08:04;;;;;;;4.70;1.60;;;21.10;33.30;;;;;;5041955;28;20414;-74
2022/06/10 09:10:36;;;;;;;1.90;1.80;;;21.40;34.00;;;;;;5054441;28;20441;-75
2022/06/10 09:13:31;;;;;;;3.10;1.83;;;21.50;32.10;;;;;;5061837;28;20475;-74
2022/06/10 09:16:11;;;;;;;3.37;1.83;;;21.20;32.80;;;;;;5070026;28;20471;-75
2022/06/10 09:18:49;;;;;;;3.10;1.40;;;21.20;33.20;;;;;;5064046;28;20479;-73
2022/06/10 09:21:20;;;;;;;4.00;1.70;;;21.50;29.50;;;;;;5067237;28;20432;-72
2022/06/10 09:23:48;;;;;;;4.30;1.67;;;21.60;29.60;;;;;;5069827;28;20535;-74
2022/06/10 09:26:24;;;;;;;2.70;1.53;;;21.50;30.00;;;;;;5069999;28;20527;-75
2022/06/10 09:28:52;;;;;;;2.43;1.43;;;21.60;30.00;;;;;;5053299;28;20459;-75
2022/06/10 09:31:30;;;;;;;2.63;1.47;;;21.60;29.60;;;;;;5060287;28;20461;-74
2022/06/10 09:34:02;;;;;;;3.70;2.40;;;21.70;30.10;;;;;;5057720;28;20538;-74
2022/06/10 09:36:39;;;;;;;6.70;2.03;;;21.90;30.30;;;;;;5052555;28;20452;-75
2022/06/10 09:40:35;;;;;;;5.90;1.87;;;22.00;30.40;;;;;;5047090;28;20530;-73
2022/06/10 09:42:12;;;;;;;3.73;1.50;;;22.10;29.80;;;;;;5051382;28;20535;-74
2022/06/10 09:44:47;;;;;;;1.70;1.30;;;22.20;28.50;;;;;;5057956;28;20439;-74
2022/06/10 09:47:21;;;;;;;1.60;1.50;;;22.10;27.10;;;;;;5057771;28;20455;-74
2022/06/10 09:50:04;;;;;;;1.93;1.60;;;22.30;29.00;;;;;;5056994;28;20432;-74
2022/06/10 09:52:39;;;;;;;2.60;1.47;;;22.40;28.60;;;;;;5045541;28;20521;-73
2022/06/10 09:55:22;;;;;;;3.47;2.13;;;22.60;27.70;;;;;;5056640;28;20428;-73
2022/06/10 09:57:58;;;;;;;5.57;2.57;;;22.70;28.20;;;;;;5057027;28;20452;-74
2022/06/10 10:00:32;;;;;;;2.67;1.83;;;22.70;29.50;;;;;;5057567;28;20433;-74
2022/06/10 10:03:16;;;;;;;2.50;1.70;;;22.30;29.40;;;;;;5056240;28;20465;-74
2022/06/10 10:06:01;;;;;;;2.07;1.20;;;22.40;29.50;;;;;;5056639;28;21048;-74
2022/06/10 10:08:34;;;;;;;3.43;1.80;;;22.60;28.70;;;;;;5042288;28;20981;-73
2022/06/10 10:11:08;;;;;;;2.20;1.83;;;22.70;27.60;;;;;;5043806;28;20496;-76
2022/06/10 10:13:59;;;;;;;3.27;1.77;;;22.70;27.70;;;;;;5046426;28;20526;-73
2022/06/10 10:16:39;;;;;;;2.93;1.63;;;22.70;28.80;;;;;;5056320;28;20453;-73
2022/06/10 10:19:25;;;;;;;3.30;1.53;;;22.90;27.90;;;;;;5055068;28;20435;-72
2022/06/10 10:22:00;;;;;;;2.87;1.70;;;22.90;27.80;;;;;;5051334;28;20467;-75
2022/06/10 10:24:28;;;;;;;6.03;1.50;;;23.00;27.50;;;;;;5044834;28;20586;-72
2022/06/10 10:26:58;;;;;;;2.57;1.30;;;23.00;27.80;;;;;;5036616;28;20461;-74
2022/06/10 10:29:29;;;;;;;2.20;1.57;;;23.00;27.60;;;;;;5036281;28;20462;-73
2022/06/10 10:32:04;;;;;;;3.73;1.70;;;22.40;28.20;;;;;;5036491;28;20801;-73
2022/06/10 10:34:37;;;;;;;6.20;1.40;;;22.80;28.10;;;;;;5035283;28;20516;-71
2022/06/10 10:37:19;;;;;;;3.80;1.50;;;22.90;27.60;;;;;;5048418;28;20580;-74
2022/06/10 10:39:52;;;;;;;2.30;1.80;;;23.10;27.00;;;;;;5048292;28;20439;-72
2022/06/10 10:42:23;;;;;;;5.90;1.43;;;23.30;26.90;;;;;;5055789;28;20463;-73
2022/06/10 10:44:58;;;;;;;2.33;1.97;;;23.40;26.20;;;;;;5056025;28;20503;-73
2022/06/10 10:47:27;;;;;;;2.90;1.40;;;23.40;26.90;;;;;;5056123;28;20469;-73
2022/06/10 10:50:16;;;;;;;3.50;1.60;;;23.30;27.20;;;;;;5044621;28;20426;-73
2022/06/10 10:52:45;;;;;;;5.20;1.53;;;23.30;27.00;;;;;;5039766;28;20521;-73
2022/06/10 10:55:26;;;;;;;3.87;2.13;;;23.50;26.90;;;;;;5048007;28;20433;-73
2022/06/10 10:58:03;;;;;;;4.73;1.60;;;23.50;27.00;;;;;;5051201;28;20446;-73
2022/06/10 11:00:33;;;;;;;3.60;1.67;;;23.30;27.00;;;;;;5045320;28;20915;-72
2022/06/10 11:03:02;;;;;;;11.00;2.33;;;23.30;27.20;;;;;;5053344;28;20503;-73
2022/06/10 11:05:35;;;;;;;2.10;1.53;;;23.50;27.10;;;;;;5054637;28;20459;-72
2022/06/10 11:08:24;;;;;;;3.73;2.03;;;23.50;26.90;;;;;;5049108;28;20957;-74
2022/06/10 11:11:00;;;;;;;4.97;2.10;;;23.40;26.00;;;;;;5035340;28;20433;-73
2022/06/10 11:13:35;;;;;;;3.93;2.00;;;23.40;26.70;;;;;;5036337;28;20951;-72
2022/06/10 11:16:34;;;;;;;2.07;1.50;;;23.60;26.70;;;;;;5038046;28;20469;-74
2022/06/10 11:19:13;;;;;;;3.60;1.70;;;23.30;26.70;;;;;;5053326;28;20498;-74
2022/06/10 11:22:10;;;;;;;3.97;2.23;;;23.60;27.40;;;;;;5051616;28;20980;-73
2022/06/10 11:24:39;;;;;;;2.10;1.70;;;23.70;26.20;;;;;;5060860;28;20496;-73
2022/06/10 11:27:21;;;;;;;2.77;1.90;;;23.90;26.80;;;;;;5063770;28;20453;-74
2022/06/10 11:29:58;;;;;;;5.63;2.30;;;24.10;26.60;;;;;;5068931;28;20540;-74
2022/06/10 11:32:31;;;;;;;3.57;1.90;;;23.90;26.60;;;;;;5067629;28;20447;-73
2022/06/10 11:35:02;;;;;;;4.60;2.10;;;24.10;26.20;;;;;;5062377;28;20430;-73
2022/06/10 11:37:33;;;;;;;3.70;2.10;;;24.20;25.80;;;;;;5052671;28;20856;-73
2022/06/10 11:40:10;;;;;;;2.97;1.80;;;24.20;25.60;;;;;;5063225;28;20876;-73
2022/06/10 11:42:47;;;;;;;3.03;1.90;;;24.10;25.80;;;;;;5052401;28;20467;-73
2022/06/10 11:45:19;;;;;;;2.00;1.70;;;23.80;26.20;;;;;;5046598;28;20576;-73
2022/06/10 11:47:53;;;;;;;4.70;2.00;;;23.80;26.20;;;;;;5040742;28;20472;-74
2022/06/10 11:50:28;;;;;;;2.30;1.60;;;23.80;26.30;;;;;;5046934;28;20745;-73
2022/06/10 11:53:02;;;;;;;3.70;2.07;;;23.70;26.70;;;;;;5046826;28;20494;-74
2022/06/10 11:55:31;;;;;;;5.93;1.80;;;23.50;26.80;;;;;;5057541;28;20415;-74
2022/06/10 12:00:53;;;;;;;2.30;1.60;;;24.20;26.40;;;;;;5043425;28;20446;-75
2022/06/10 12:03:28;;;;;;;5.10;1.77;;;24.20;24.90;;;;;;5048984;28;20443;-73
2022/06/10 12:06:04;;;;;;;3.73;1.70;;;24.10;25.50;;;;;;5052758;28;20925;-73
2022/06/10 12:08:39;;;;;;;3.27;1.60;;;24.10;26.10;;;;;;5040735;28;20419;-74
2022/06/10 12:11:28;;;;;;;6.57;2.10;;;24.50;25.40;;;;;;5048324;28;20825;-74
2022/06/10 12:14:02;;;;;;;4.17;2.13;;;24.90;25.00;;;;;;5039396;28;20455;-73
2022/06/10 12:16:31;;;;;;;4.37;1.73;;;25.20;24.70;;;;;;5034869;28;20441;-73
2022/06/10 12:19:01;;;;;;;8.83;1.80;;;24.60;24.50;;;;;;5035152;28;20901;-74
2022/06/10 12:21:29;;;;;;;4.60;1.80;;;24.40;25.40;;;;;;5048554;28;20468;-73
2022/06/10 12:23:58;;;;;;;3.80;1.77;;;24.80;24.60;;;;;;5049724;28;20475;-74
2022/06/10 12:26:31;;;;;;;2.73;1.53;;;25.10;25.00;;;;;;5042398;28;20465;-75
2022/06/10 12:29:03;;;;;;;5.80;1.60;;;25.30;24.40;;;;;;5039257;28;20452;-75
2022/06/10 12:31:52;;;;;;;4.17;1.90;;;25.10;24.30;;;;;;5050614;28;20473;-74
2022/06/10 12:34:26;;;;;;;5.07;1.80;;;25.10;24.30;;;;;;5048866;28;20481;-74
2022/06/10 12:36:59;;;;;;;5.70;1.67;;;24.90;24.20;;;;;;5045482;28;20989;-74
2022/06/10 12:39:32;;;;;;;5.90;2.10;;;25.00;24.30;;;;;;5046297;28;20987;-75
2022/06/10 12:42:06;;;;;;;3.20;1.40;;;24.90;24.80;;;;;;5054119;28;20469;-74
2022/06/10 12:44:37;;;;;;;7.77;1.50;;;24.90;24.20;;;;;;5044966;28;20500;-73
2022/06/10 12:47:07;;;;;;;2.93;1.70;;;25.10;24.30;;;;;;5054773;28;20511;-72
2022/06/10 12:49:39;;;;;;;4.07;2.23;;;25.20;24.40;;;;;;5044315;28;20444;-73
2022/06/10 12:52:27;;;;;;;3.10;1.27;;;25.00;24.30;;;;;;5055444;28;20552;-74
2022/06/10 12:55:00;;;;;;;4.83;1.57;;;25.30;24.40;;;;;;5047341;28;20526;-73
2022/06/10 12:57:39;;;;;;;3.13;1.60;;;25.20;23.60;;;;;;5054691;28;20539;-73
2022/06/10 13:00:43;;;;;;;3.23;1.53;;;25.40;23.60;;;;;;5048001;28;20901;-73
2022/06/10 13:03:25;;;;;;;2.43;1.50;;;25.90;23.30;;;;;;5055225;28;20859;-73
2022/06/10 13:05:52;;;;;;;2.73;1.67;;;26.10;22.60;;;;;;5041698;28;20998;-72
2022/06/10 13:44:27;;;;;;;3.07;1.40;;;27.00;21.60;;;;;;5041429;28;20457;-81
2022/06/10 13:46:55;;;;;;;3.50;2.00;;;27.10;20.60;;;;;;5036825;28;20458;-80
2022/06/10 13:52:17;;;;;;;4.33;2.10;;;26.90;21.10;;;;;;5035038;28;20444;-79
2022/06/10 13:54:44;;;;;;;3.00;1.70;;;27.20;20.50;;;;;;5033057;28;20450;-80
2022/06/10 13:57:19;;;;;;;3.03;1.30;;;27.10;21.20;;;;;;5135570;22;21096;-80
2022/06/10 14:52:49;;;;;;;2.27;1.50;;;26.50;20.90;;;;;;5056143;28;20484;-79
2022/06/10 14:55:21;;;;;;;2.50;1.40;;;26.50;20.90;;;;;;5059917;28;20440;-78
2022/06/10 14:57:53;;;;;;;2.97;1.83;;;26.70;20.40;;;;;;5059295;28;20463;-79
2022/06/10 15:00:35;;;;;;;;;;;;;;;;;;;;;